HKE820 VHHH-ROAH
Flight info
| Callsign | HKE820 |
|---|---|
| Flight time | 1h 54m |
| Altitude | 35000 |
| Route | DALOL V631 ENVAR M750 KUDOS R595 MJC Y57 VELNO |
| Aircraft | A321/M-SDE3FGHIRWY/LB1 |
Departure
| Time | 2026-05-07 14:52 |
|---|---|
| Airport | Hong Kong International Airport (VHHH) |
Arrival
| Time | 2026-05-07 16:47 |
|---|---|
| Airport | Naha International Airport (ROAH) |
| Time | Latitude | Longitude | Altitude | Speed | Heading |
|---|---|---|---|---|---|
| 2026-05-07 14:30 | 22.30764 | 113.91946 | 37 ft | 0 kts | 251° |
| 2026-05-07 14:41 | 22.30769 | 113.91959 | 37 ft | 2 kts | 250° |
| 2026-05-07 14:41 | 22.30774 | 113.91976 | 37 ft | 2 kts | 249° |
| 2026-05-07 14:41 | 22.30780 | 113.91993 | 37 ft | 2 kts | 249° |
| 2026-05-07 14:41 | 22.30786 | 113.92010 | 37 ft | 2 kts | 234° |
| 2026-05-07 14:42 | 22.30798 | 113.92022 | 35 ft | 2 kts | 203° |
| 2026-05-07 14:42 | 22.30814 | 113.92028 | 37 ft | 2 kts | 182° |
| 2026-05-07 14:42 | 22.30828 | 113.92027 | 36 ft | 1 kts | 166° |
| 2026-05-07 14:42 | 22.30832 | 113.92026 | 35 ft | 0 kts | 162° |
| 2026-05-07 14:44 | 22.30826 | 113.92028 | 35 ft | 2 kts | 162° |
| 2026-05-07 14:44 | 22.30809 | 113.92034 | 35 ft | 3 kts | 160° |
| 2026-05-07 14:45 | 22.30788 | 113.92051 | 36 ft | 4 kts | 134° |
| 2026-05-07 14:45 | 22.30781 | 113.92086 | 37 ft | 5 kts | 82° |
| 2026-05-07 14:45 | 22.30775 | 113.92133 | 37 ft | 8 kts | 129° |
| 2026-05-07 14:45 | 22.30715 | 113.92163 | 37 ft | 11 kts | 162° |
| 2026-05-07 14:46 | 22.30633 | 113.92192 | 37 ft | 14 kts | 161° |
| 2026-05-07 14:46 | 22.30561 | 113.92137 | 38 ft | 16 kts | 250° |
| 2026-05-07 14:46 | 22.30527 | 113.92031 | 37 ft | 14 kts | 251° |
| 2026-05-07 14:46 | 22.30499 | 113.91943 | 37 ft | 11 kts | 251° |
| 2026-05-07 14:47 | 22.30476 | 113.91872 | 37 ft | 9 kts | 250° |
| 2026-05-07 14:47 | 22.30455 | 113.91809 | 36 ft | 9 kts | 250° |
| 2026-05-07 14:47 | 22.30429 | 113.91731 | 37 ft | 13 kts | 251° |
| 2026-05-07 14:47 | 22.30394 | 113.91621 | 37 ft | 18 kts | 251° |
| 2026-05-07 14:48 | 22.30352 | 113.91490 | 36 ft | 20 kts | 250° |
| 2026-05-07 14:48 | 22.30303 | 113.91338 | 37 ft | 22 kts | 251° |
| 2026-05-07 14:48 | 22.30252 | 113.91182 | 37 ft | 22 kts | 251° |
| 2026-05-07 14:48 | 22.30202 | 113.91025 | 37 ft | 22 kts | 251° |
| 2026-05-07 14:49 | 22.30150 | 113.90866 | 37 ft | 23 kts | 251° |
| 2026-05-07 14:49 | 22.30098 | 113.90705 | 37 ft | 23 kts | 251° |
| 2026-05-07 14:49 | 22.30046 | 113.90541 | 36 ft | 23 kts | 251° |
| 2026-05-07 14:49 | 22.29992 | 113.90374 | 36 ft | 24 kts | 250° |
| 2026-05-07 14:50 | 22.29937 | 113.90206 | 36 ft | 23 kts | 251° |
| 2026-05-07 14:50 | 22.29883 | 113.90038 | 36 ft | 24 kts | 251° |
| 2026-05-07 14:50 | 22.29829 | 113.89872 | 37 ft | 20 kts | 251° |
| 2026-05-07 14:50 | 22.29782 | 113.89771 | 37 ft | 12 kts | 212° |
| 2026-05-07 14:51 | 22.29702 | 113.89781 | 37 ft | 12 kts | 159° |
| 2026-05-07 14:51 | 22.29649 | 113.89846 | 37 ft | 12 kts | 115° |
| 2026-05-07 14:51 | 22.29664 | 113.89932 | 37 ft | 12 kts | 70° |
| 2026-05-07 14:51 | 22.29713 | 113.90084 | 36 ft | 48 kts | 71° |
| 2026-05-07 14:52 | 22.29900 | 113.90657 | 37 ft | 112 kts | 70° |
| 2026-05-07 14:52 | 22.30212 | 113.91634 | 38 ft | 161 kts | 70° |
| 2026-05-07 14:52 | 22.30626 | 113.92881 | 285 ft | 181 kts | 72° |
| 2026-05-07 14:52 | 22.31006 | 113.94133 | 1020 ft | 177 kts | 73° |
| 2026-05-07 14:53 | 22.31407 | 113.95394 | 1697 ft | 178 kts | 72° |
| 2026-05-07 14:53 | 22.31834 | 113.96714 | 2071 ft | 193 kts | 72° |
| 2026-05-07 14:53 | 22.32293 | 113.98135 | 2223 ft | 214 kts | 72° |
| 2026-05-07 14:53 | 22.32796 | 113.99694 | 2549 ft | 224 kts | 71° |
| 2026-05-07 14:54 | 22.33314 | 114.01295 | 3114 ft | 227 kts | 71° |
| 2026-05-07 14:54 | 22.33780 | 114.02931 | 3705 ft | 230 kts | 82° |
| 2026-05-07 14:54 | 22.33569 | 114.04684 | 3932 ft | 248 kts | 119° |
| 2026-05-07 14:54 | 22.32412 | 114.06143 | 4186 ft | 265 kts | 139° |
| 2026-05-07 14:55 | 22.30980 | 114.07439 | 4718 ft | 272 kts | 142° |
| 2026-05-07 14:55 | 22.29454 | 114.08673 | 5313 ft | 276 kts | 144° |
| 2026-05-07 14:55 | 22.27892 | 114.09893 | 5907 ft | 279 kts | 145° |
| 2026-05-07 14:55 | 22.26307 | 114.11130 | 6509 ft | 282 kts | 145° |
| 2026-05-07 14:56 | 22.24714 | 114.12388 | 7066 ft | 286 kts | 145° |
| 2026-05-07 14:56 | 22.23110 | 114.13670 | 7640 ft | 289 kts | 144° |
| 2026-05-07 14:56 | 22.21499 | 114.14973 | 8194 ft | 292 kts | 144° |
| 2026-05-07 14:56 | 22.19868 | 114.16302 | 8761 ft | 294 kts | 144° |
| 2026-05-07 14:57 | 22.18227 | 114.17639 | 9317 ft | 297 kts | 144° |
| 2026-05-07 14:57 | 22.16567 | 114.18990 | 9867 ft | 300 kts | 144° |
| 2026-05-07 14:57 | 22.14882 | 114.20361 | 10209 ft | 310 kts | 144° |
| 2026-05-07 14:57 | 22.13106 | 114.21801 | 10328 ft | 328 kts | 144° |
| 2026-05-07 14:58 | 22.11239 | 114.23312 | 10448 ft | 344 kts | 144° |
| 2026-05-07 14:58 | 22.09286 | 114.24896 | 10577 ft | 359 kts | 144° |
| 2026-05-07 14:58 | 22.07272 | 114.26538 | 10897 ft | 366 kts | 144° |
| 2026-05-07 14:58 | 22.05223 | 114.28187 | 11341 ft | 368 kts | 145° |
| 2026-05-07 14:59 | 22.03148 | 114.29830 | 11812 ft | 371 kts | 145° |
| 2026-05-07 14:59 | 22.01054 | 114.31475 | 12265 ft | 374 kts | 146° |
| 2026-05-07 14:59 | 21.98949 | 114.33124 | 12718 ft | 376 kts | 146° |
| 2026-05-07 14:59 | 21.96824 | 114.34791 | 13154 ft | 379 kts | 146° |
| 2026-05-07 15:00 | 21.94687 | 114.36472 | 13589 ft | 381 kts | 145° |
| 2026-05-07 15:00 | 21.92538 | 114.38162 | 13993 ft | 384 kts | 146° |
| 2026-05-07 15:00 | 21.90372 | 114.39862 | 14361 ft | 386 kts | 146° |
| 2026-05-07 15:00 | 21.88200 | 114.41582 | 14726 ft | 389 kts | 143° |
| 2026-05-07 15:01 | 21.86239 | 114.43616 | 15067 ft | 394 kts | 131° |
| 2026-05-07 15:01 | 21.84693 | 114.46070 | 15414 ft | 399 kts | 118° |
| 2026-05-07 15:01 | 21.83634 | 114.48834 | 15755 ft | 403 kts | 107° |
| 2026-05-07 15:01 | 21.82888 | 114.51759 | 16106 ft | 406 kts | 106° |
| 2026-05-07 15:02 | 21.82137 | 114.54688 | 16461 ft | 408 kts | 106° |
| 2026-05-07 15:02 | 21.81370 | 114.57631 | 16812 ft | 411 kts | 106° |
| 2026-05-07 15:02 | 21.80591 | 114.60611 | 17160 ft | 414 kts | 106° |
| 2026-05-07 15:02 | 21.79811 | 114.63598 | 17508 ft | 416 kts | 106° |
| 2026-05-07 15:03 | 21.79025 | 114.66616 | 17836 ft | 419 kts | 106° |
| 2026-05-07 15:03 | 21.78238 | 114.69641 | 18161 ft | 422 kts | 106° |
| 2026-05-07 15:03 | 21.77445 | 114.72691 | 18451 ft | 424 kts | 106° |
| 2026-05-07 15:03 | 21.76648 | 114.75758 | 18738 ft | 426 kts | 106° |
| 2026-05-07 15:04 | 21.75848 | 114.78835 | 19024 ft | 428 kts | 106° |
| 2026-05-07 15:04 | 21.75046 | 114.81924 | 19312 ft | 430 kts | 106° |
| 2026-05-07 15:04 | 21.74464 | 114.85087 | 19599 ft | 432 kts | 96° |
| 2026-05-07 15:04 | 21.74356 | 114.88318 | 19885 ft | 434 kts | 89° |
| 2026-05-07 15:05 | 21.74368 | 114.91563 | 20174 ft | 436 kts | 89° |
| 2026-05-07 15:05 | 21.74375 | 114.94832 | 20455 ft | 437 kts | 89° |
| 2026-05-07 15:05 | 21.74378 | 114.98100 | 20734 ft | 439 kts | 90° |
| 2026-05-07 15:05 | 21.74377 | 115.01403 | 21017 ft | 441 kts | 90° |
| 2026-05-07 15:06 | 21.74373 | 115.04706 | 21292 ft | 443 kts | 90° |
| 2026-05-07 15:06 | 21.74366 | 115.08023 | 21565 ft | 444 kts | 90° |
| 2026-05-07 15:06 | 21.74357 | 115.11352 | 21838 ft | 446 kts | 90° |
| 2026-05-07 15:06 | 21.74349 | 115.14690 | 22108 ft | 448 kts | 90° |
| 2026-05-07 15:07 | 21.74342 | 115.18050 | 22379 ft | 450 kts | 89° |
| 2026-05-07 15:07 | 21.74339 | 115.21415 | 22652 ft | 451 kts | 89° |
| 2026-05-07 15:07 | 21.74336 | 115.24796 | 22916 ft | 453 kts | 89° |
| 2026-05-07 15:07 | 21.74335 | 115.28194 | 23181 ft | 455 kts | 89° |
| 2026-05-07 15:08 | 21.74330 | 115.31597 | 23444 ft | 457 kts | 89° |
| 2026-05-07 15:08 | 21.74323 | 115.35018 | 23675 ft | 458 kts | 89° |
| 2026-05-07 15:08 | 21.74313 | 115.38453 | 23887 ft | 460 kts | 89° |
| 2026-05-07 15:08 | 21.74302 | 115.41893 | 24104 ft | 461 kts | 89° |
| 2026-05-07 15:09 | 21.74291 | 115.45351 | 24317 ft | 463 kts | 90° |
| 2026-05-07 15:09 | 21.74279 | 115.48820 | 24534 ft | 464 kts | 89° |
| 2026-05-07 15:09 | 21.74269 | 115.52301 | 24750 ft | 466 kts | 89° |
| 2026-05-07 15:09 | 21.74257 | 115.55793 | 24963 ft | 467 kts | 89° |
| 2026-05-07 15:10 | 21.74245 | 115.59293 | 25177 ft | 469 kts | 90° |
| 2026-05-07 15:10 | 21.74232 | 115.62806 | 25383 ft | 470 kts | 90° |
| 2026-05-07 15:10 | 21.74215 | 115.66330 | 25594 ft | 472 kts | 90° |
| 2026-05-07 15:10 | 21.74197 | 115.69865 | 25800 ft | 473 kts | 90° |
| 2026-05-07 15:11 | 21.74182 | 115.73404 | 26003 ft | 475 kts | 89° |
| 2026-05-07 15:11 | 21.74168 | 115.76966 | 26212 ft | 476 kts | 90° |
| 2026-05-07 15:11 | 21.74153 | 115.80527 | 26419 ft | 478 kts | 90° |
| 2026-05-07 15:11 | 21.74136 | 115.84110 | 26634 ft | 479 kts | 90° |
| 2026-05-07 15:12 | 21.74117 | 115.87695 | 26830 ft | 481 kts | 90° |
| 2026-05-07 15:12 | 21.74097 | 115.91296 | 27032 ft | 482 kts | 90° |
| 2026-05-07 15:12 | 21.74078 | 115.94906 | 27233 ft | 483 kts | 90° |
| 2026-05-07 15:12 | 21.74059 | 115.98523 | 27435 ft | 485 kts | 90° |
| 2026-05-07 15:13 | 21.74037 | 116.02158 | 27629 ft | 486 kts | 90° |
| 2026-05-07 15:13 | 21.74016 | 116.05800 | 27823 ft | 488 kts | 90° |
| 2026-05-07 15:13 | 21.73994 | 116.09454 | 28014 ft | 489 kts | 90° |
| 2026-05-07 15:13 | 21.73972 | 116.13119 | 28201 ft | 491 kts | 90° |
| 2026-05-07 15:14 | 21.73947 | 116.16792 | 28383 ft | 492 kts | 90° |
| 2026-05-07 15:14 | 21.73919 | 116.20475 | 28553 ft | 493 kts | 90° |
| 2026-05-07 15:14 | 21.73891 | 116.24172 | 28716 ft | 495 kts | 90° |
| 2026-05-07 15:14 | 21.73866 | 116.27871 | 28880 ft | 496 kts | 89° |
| 2026-05-07 15:15 | 21.73849 | 116.30322 | 28981 ft | 496 kts | 89° |
| 2026-05-07 15:15 | 21.73815 | 116.35299 | 29179 ft | 498 kts | 90° |
| 2026-05-07 15:15 | 21.73785 | 116.39027 | 29323 ft | 499 kts | 90° |
| 2026-05-07 15:15 | 21.73752 | 116.42722 | 29454 ft | 500 kts | 90° |
| 2026-05-07 15:16 | 21.73728 | 116.45240 | 29556 ft | 500 kts | 90° |
| 2026-05-07 15:16 | 21.73691 | 116.49028 | 29764 ft | 499 kts | 90° |
| 2026-05-07 15:16 | 21.73655 | 116.52763 | 29961 ft | 499 kts | 90° |
| 2026-05-07 15:16 | 21.73617 | 116.56490 | 30134 ft | 499 kts | 90° |
| 2026-05-07 15:17 | 21.73582 | 116.60220 | 30301 ft | 498 kts | 89° |
| 2026-05-07 15:17 | 21.73548 | 116.63939 | 30463 ft | 498 kts | 89° |
| 2026-05-07 15:17 | 21.73515 | 116.67661 | 30636 ft | 497 kts | 89° |
| 2026-05-07 15:17 | 21.73482 | 116.71377 | 30797 ft | 497 kts | 89° |
| 2026-05-07 15:18 | 21.73482 | 116.75092 | 30955 ft | 496 kts | 85° |
| 2026-05-07 15:18 | 21.73884 | 116.78761 | 31126 ft | 493 kts | 77° |
| 2026-05-07 15:18 | 21.74781 | 116.82308 | 31283 ft | 491 kts | 68° |
| 2026-05-07 15:18 | 21.76007 | 116.85727 | 31433 ft | 490 kts | 66° |
| 2026-05-07 15:19 | 21.77247 | 116.89134 | 31595 ft | 489 kts | 66° |
| 2026-05-07 15:19 | 21.78488 | 116.92546 | 31773 ft | 489 kts | 66° |
| 2026-05-07 15:19 | 21.79724 | 116.95949 | 31942 ft | 488 kts | 66° |
| 2026-05-07 15:19 | 21.80958 | 116.99351 | 32124 ft | 488 kts | 66° |
| 2026-05-07 15:20 | 21.82189 | 117.02752 | 32283 ft | 487 kts | 67° |
| 2026-05-07 15:20 | 21.83414 | 117.06145 | 32451 ft | 487 kts | 66° |
| 2026-05-07 15:20 | 21.84641 | 117.09540 | 32618 ft | 486 kts | 67° |
| 2026-05-07 15:20 | 21.85862 | 117.12934 | 32806 ft | 486 kts | 67° |
| 2026-05-07 15:21 | 21.87078 | 117.16321 | 32971 ft | 485 kts | 67° |
| 2026-05-07 15:21 | 21.88293 | 117.19704 | 33166 ft | 484 kts | 67° |
| 2026-05-07 15:21 | 21.89507 | 117.23080 | 33331 ft | 483 kts | 67° |
| 2026-05-07 15:21 | 21.90720 | 117.26453 | 33509 ft | 483 kts | 67° |
| 2026-05-07 15:22 | 21.91929 | 117.29821 | 33686 ft | 482 kts | 67° |
| 2026-05-07 15:22 | 21.93136 | 117.33183 | 33880 ft | 481 kts | 67° |
| 2026-05-07 15:22 | 21.94324 | 117.36498 | 34041 ft | 480 kts | 67° |
| 2026-05-07 15:22 | 21.95525 | 117.39848 | 34186 ft | 479 kts | 67° |
| 2026-05-07 15:23 | 21.96721 | 117.43192 | 34324 ft | 479 kts | 66° |
| 2026-05-07 15:23 | 21.97919 | 117.46537 | 34461 ft | 479 kts | 66° |
| 2026-05-07 15:23 | 21.99191 | 117.49848 | 34598 ft | 477 kts | 61° |
| 2026-05-07 15:23 | 22.00823 | 117.52937 | 34709 ft | 474 kts | 55° |
| 2026-05-07 15:24 | 22.02554 | 117.55958 | 34854 ft | 474 kts | 55° |
| 2026-05-07 15:24 | 22.04284 | 117.58983 | 34946 ft | 475 kts | 55° |
| 2026-05-07 15:24 | 22.07756 | 117.65083 | 34966 ft | 481 kts | 55° |
| 2026-05-07 15:25 | 22.11261 | 117.71271 | 34960 ft | 485 kts | 55° |
| 2026-05-07 15:25 | 22.14794 | 117.77515 | 34963 ft | 490 kts | 55° |
| 2026-05-07 15:26 | 22.18355 | 117.83812 | 34966 ft | 494 kts | 55° |
| 2026-05-07 15:26 | 22.21939 | 117.90171 | 34966 ft | 496 kts | 56° |
| 2026-05-07 15:27 | 22.25527 | 117.96533 | 34962 ft | 496 kts | 55° |
| 2026-05-07 15:27 | 22.29152 | 118.02932 | 34971 ft | 497 kts | 55° |
| 2026-05-07 15:28 | 22.32815 | 118.09208 | 34975 ft | 497 kts | 54° |
| 2026-05-07 15:28 | 22.36551 | 118.15553 | 34979 ft | 498 kts | 54° |
| 2026-05-07 15:29 | 22.40245 | 118.21873 | 34982 ft | 498 kts | 54° |
| 2026-05-07 15:29 | 22.43896 | 118.28263 | 34983 ft | 499 kts | 55° |
| 2026-05-07 15:30 | 22.47496 | 118.34675 | 34985 ft | 500 kts | 56° |
| 2026-05-07 15:30 | 22.51105 | 118.41103 | 34982 ft | 500 kts | 55° |
| 2026-05-07 15:31 | 22.54731 | 118.47519 | 34986 ft | 500 kts | 55° |
| 2026-05-07 15:31 | 22.58366 | 118.53935 | 34982 ft | 500 kts | 55° |
| 2026-05-07 15:32 | 22.62021 | 118.60339 | 34990 ft | 500 kts | 55° |
| 2026-05-07 15:32 | 22.65683 | 118.66748 | 34989 ft | 501 kts | 55° |
| 2026-05-07 15:33 | 22.69346 | 118.73170 | 34986 ft | 501 kts | 55° |
| 2026-05-07 15:33 | 22.73000 | 118.79602 | 34985 ft | 501 kts | 55° |
| 2026-05-07 15:34 | 22.76649 | 118.86048 | 34989 ft | 502 kts | 55° |
| 2026-05-07 15:34 | 22.80300 | 118.92482 | 34987 ft | 502 kts | 55° |
| 2026-05-07 15:35 | 22.83943 | 118.98936 | 34983 ft | 502 kts | 55° |
| 2026-05-07 15:35 | 22.87582 | 119.05396 | 34988 ft | 502 kts | 55° |
| 2026-05-07 15:36 | 22.91222 | 119.11861 | 34984 ft | 503 kts | 55° |
| 2026-05-07 15:36 | 22.94881 | 119.18337 | 34988 ft | 503 kts | 55° |
| 2026-05-07 15:37 | 22.98536 | 119.24817 | 34986 ft | 503 kts | 55° |
| 2026-05-07 15:37 | 23.02186 | 119.31307 | 34985 ft | 504 kts | 55° |
| 2026-05-07 15:38 | 23.05830 | 119.37808 | 34983 ft | 504 kts | 55° |
| 2026-05-07 15:38 | 23.09474 | 119.44311 | 34988 ft | 504 kts | 55° |
| 2026-05-07 15:39 | 23.13094 | 119.50777 | 34985 ft | 504 kts | 55° |
| 2026-05-07 15:39 | 23.16766 | 119.57330 | 34985 ft | 504 kts | 55° |
| 2026-05-07 15:40 | 23.20411 | 119.63844 | 34986 ft | 504 kts | 55° |
| 2026-05-07 15:40 | 23.24031 | 119.70323 | 34989 ft | 505 kts | 55° |
| 2026-05-07 15:41 | 23.27667 | 119.76853 | 34990 ft | 505 kts | 55° |
| 2026-05-07 15:41 | 23.31295 | 119.83386 | 34988 ft | 504 kts | 57° |
| 2026-05-07 15:42 | 23.32690 | 119.86842 | 34954 ft | 495 kts | 71° |
| 2026-05-07 15:42 | 23.33547 | 119.90446 | 34961 ft | 490 kts | 73° |
| 2026-05-07 15:42 | 23.35297 | 119.97613 | 34953 ft | 492 kts | 70° |
| 2026-05-07 15:43 | 23.37383 | 120.04744 | 34962 ft | 497 kts | 69° |
| 2026-05-07 15:43 | 23.39560 | 120.11921 | 34968 ft | 502 kts | 69° |
| 2026-05-07 15:44 | 23.41683 | 120.19204 | 34976 ft | 507 kts | 70° |
| 2026-05-07 15:44 | 23.43761 | 120.26570 | 34978 ft | 510 kts | 70° |
| 2026-05-07 15:45 | 23.45834 | 120.33946 | 34984 ft | 510 kts | 70° |
| 2026-05-07 15:45 | 23.47932 | 120.41327 | 35005 ft | 510 kts | 70° |
| 2026-05-07 15:46 | 23.51089 | 120.52403 | 35034 ft | 511 kts | 70° |
| 2026-05-07 15:47 | 23.53187 | 120.59807 | 35045 ft | 511 kts | 70° |
| 2026-05-07 15:47 | 23.55275 | 120.67215 | 35062 ft | 512 kts | 70° |
| 2026-05-07 15:48 | 23.57361 | 120.74632 | 35078 ft | 512 kts | 70° |
| 2026-05-07 15:48 | 23.59447 | 120.82051 | 35095 ft | 512 kts | 70° |
| 2026-05-07 15:49 | 23.61534 | 120.89474 | 35097 ft | 512 kts | 70° |
| 2026-05-07 15:49 | 23.63620 | 120.96892 | 35114 ft | 513 kts | 70° |
| 2026-05-07 15:50 | 23.65695 | 121.04338 | 35117 ft | 513 kts | 70° |
| 2026-05-07 15:50 | 23.67773 | 121.11788 | 35109 ft | 513 kts | 70° |
| 2026-05-07 15:51 | 23.69846 | 121.19234 | 35110 ft | 513 kts | 70° |
| 2026-05-07 15:51 | 23.71914 | 121.26687 | 35095 ft | 513 kts | 70° |
| 2026-05-07 15:52 | 23.73981 | 121.34131 | 35089 ft | 513 kts | 70° |
| 2026-05-07 15:52 | 23.76049 | 121.41590 | 35067 ft | 513 kts | 70° |
| 2026-05-07 15:53 | 23.78101 | 121.49016 | 35023 ft | 511 kts | 71° |
| 2026-05-07 15:53 | 23.80165 | 121.56511 | 35012 ft | 510 kts | 71° |
| 2026-05-07 15:54 | 23.81863 | 121.62675 | 35002 ft | 511 kts | 71° |
| 2026-05-07 15:54 | 23.84252 | 121.71360 | 34988 ft | 511 kts | 71° |
| 2026-05-07 15:55 | 23.85942 | 121.77532 | 34982 ft | 510 kts | 71° |
| 2026-05-07 15:55 | 23.87968 | 121.84965 | 34976 ft | 510 kts | 71° |
| 2026-05-07 15:56 | 23.89994 | 121.92390 | 34975 ft | 510 kts | 71° |
| 2026-05-07 15:56 | 23.92026 | 121.99830 | 34981 ft | 511 kts | 71° |
| 2026-05-07 15:57 | 23.94051 | 122.07275 | 34986 ft | 511 kts | 71° |
| 2026-05-07 15:57 | 23.96067 | 122.14731 | 34991 ft | 511 kts | 71° |
| 2026-05-07 15:58 | 23.98087 | 122.22188 | 34998 ft | 511 kts | 71° |
| 2026-05-07 15:58 | 24.00105 | 122.29641 | 34997 ft | 511 kts | 71° |
| 2026-05-07 15:59 | 24.02115 | 122.37088 | 34994 ft | 510 kts | 71° |
| 2026-05-07 15:59 | 24.04108 | 122.44538 | 35001 ft | 510 kts | 71° |
| 2026-05-07 16:00 | 24.06101 | 122.51986 | 34995 ft | 510 kts | 71° |
| 2026-05-07 16:00 | 24.08098 | 122.59437 | 34999 ft | 510 kts | 71° |
| 2026-05-07 16:01 | 24.10091 | 122.66886 | 34991 ft | 510 kts | 71° |
| 2026-05-07 16:01 | 24.12076 | 122.74333 | 34990 ft | 510 kts | 71° |
| 2026-05-07 16:02 | 24.14064 | 122.81781 | 34999 ft | 510 kts | 71° |
| 2026-05-07 16:02 | 24.16009 | 122.89108 | 35002 ft | 510 kts | 71° |
| 2026-05-07 16:03 | 24.17982 | 122.96567 | 35004 ft | 511 kts | 72° |
| 2026-05-07 16:03 | 24.19958 | 123.04040 | 34966 ft | 509 kts | 72° |
| 2026-05-07 16:04 | 24.21922 | 123.11472 | 34972 ft | 508 kts | 72° |
| 2026-05-07 16:04 | 24.23879 | 123.18903 | 34973 ft | 508 kts | 72° |
| 2026-05-07 16:05 | 24.25831 | 123.26327 | 34974 ft | 508 kts | 72° |
| 2026-05-07 16:05 | 24.27781 | 123.33769 | 34979 ft | 508 kts | 72° |
| 2026-05-07 16:06 | 24.29727 | 123.41215 | 34989 ft | 509 kts | 72° |
| 2026-05-07 16:06 | 24.31670 | 123.48673 | 34994 ft | 509 kts | 72° |
| 2026-05-07 16:07 | 24.33621 | 123.56136 | 34999 ft | 509 kts | 72° |
| 2026-05-07 16:07 | 24.35566 | 123.63612 | 34981 ft | 509 kts | 72° |
| 2026-05-07 16:08 | 24.37499 | 123.71060 | 34977 ft | 508 kts | 72° |
| 2026-05-07 16:08 | 24.39426 | 123.78520 | 34977 ft | 508 kts | 72° |
| 2026-05-07 16:09 | 24.41346 | 123.85980 | 34986 ft | 508 kts | 72° |
| 2026-05-07 16:09 | 24.43269 | 123.93445 | 34975 ft | 509 kts | 72° |
| 2026-05-07 16:10 | 24.45193 | 124.00920 | 34986 ft | 510 kts | 72° |
| 2026-05-07 16:10 | 24.47093 | 124.08344 | 34996 ft | 510 kts | 72° |
| 2026-05-07 16:11 | 24.49012 | 124.15848 | 34999 ft | 511 kts | 72° |
| 2026-05-07 16:11 | 24.50926 | 124.23358 | 35001 ft | 511 kts | 72° |
| 2026-05-07 16:12 | 24.52847 | 124.30880 | 35002 ft | 511 kts | 72° |
| 2026-05-07 16:12 | 24.54761 | 124.38396 | 35004 ft | 511 kts | 72° |
| 2026-05-07 16:13 | 24.56672 | 124.45917 | 35006 ft | 512 kts | 72° |
| 2026-05-07 16:13 | 24.58572 | 124.53450 | 35003 ft | 512 kts | 72° |
| 2026-05-07 16:14 | 24.60471 | 124.60982 | 35005 ft | 512 kts | 72° |
| 2026-05-07 16:14 | 24.62375 | 124.68524 | 35002 ft | 512 kts | 72° |
| 2026-05-07 16:15 | 24.64269 | 124.76061 | 35004 ft | 512 kts | 72° |
| 2026-05-07 16:15 | 24.65991 | 124.82929 | 35006 ft | 512 kts | 72° |
| 2026-05-07 16:16 | 24.67864 | 124.90422 | 35006 ft | 512 kts | 72° |
| 2026-05-07 16:16 | 24.69765 | 124.97954 | 34968 ft | 510 kts | 72° |
| 2026-05-07 16:17 | 24.71687 | 125.05464 | 34979 ft | 510 kts | 72° |
| 2026-05-07 16:17 | 24.73607 | 125.12982 | 34975 ft | 511 kts | 72° |
| 2026-05-07 16:18 | 24.75533 | 125.20562 | 34975 ft | 511 kts | 72° |
| 2026-05-07 16:18 | 24.77525 | 125.28008 | 34982 ft | 510 kts | 66° |
| 2026-05-07 16:19 | 24.80852 | 125.34819 | 34989 ft | 505 kts | 54° |
| 2026-05-07 16:19 | 24.84594 | 125.41375 | 34998 ft | 506 kts | 54° |
| 2026-05-07 16:20 | 24.88322 | 125.47962 | 35001 ft | 507 kts | 55° |
| 2026-05-07 16:20 | 24.92038 | 125.54555 | 35006 ft | 507 kts | 55° |
| 2026-05-07 16:21 | 24.95753 | 125.61153 | 35010 ft | 507 kts | 55° |
| 2026-05-07 16:21 | 24.99482 | 125.67759 | 35011 ft | 507 kts | 54° |
| 2026-05-07 16:22 | 25.03207 | 125.74361 | 35016 ft | 507 kts | 54° |
| 2026-05-07 16:22 | 25.06931 | 125.80971 | 35014 ft | 507 kts | 54° |
| 2026-05-07 16:23 | 25.10629 | 125.87549 | 34758 ft | 495 kts | 55° |
| 2026-05-07 16:23 | 25.12420 | 125.90745 | 34524 ft | 486 kts | 55° |
| 2026-05-07 16:23 | 25.14190 | 125.93914 | 34295 ft | 484 kts | 55° |
| 2026-05-07 16:23 | 25.15952 | 125.97064 | 34076 ft | 483 kts | 55° |
| 2026-05-07 16:24 | 25.17721 | 126.00222 | 33826 ft | 483 kts | 55° |
| 2026-05-07 16:24 | 25.19490 | 126.03380 | 33544 ft | 484 kts | 55° |
| 2026-05-07 16:24 | 25.21267 | 126.06557 | 32628 ft | 489 kts | 55° |
| 2026-05-07 16:24 | 25.23056 | 126.09754 | 31989 ft | 488 kts | 55° |
| 2026-05-07 16:25 | 25.24828 | 126.12925 | 31450 ft | 483 kts | 55° |
| 2026-05-07 16:25 | 25.26589 | 126.16077 | 30888 ft | 481 kts | 56° |
| 2026-05-07 16:25 | 25.28336 | 126.19213 | 30323 ft | 479 kts | 56° |
| 2026-05-07 16:25 | 25.30077 | 126.22340 | 29717 ft | 476 kts | 56° |
| 2026-05-07 16:26 | 25.31806 | 126.25445 | 29131 ft | 472 kts | 56° |
| 2026-05-07 16:26 | 25.33517 | 126.28522 | 28607 ft | 467 kts | 56° |
| 2026-05-07 16:26 | 25.35212 | 126.31570 | 28040 ft | 463 kts | 56° |
| 2026-05-07 16:26 | 25.36336 | 126.33589 | 27673 ft | 461 kts | 56° |
| 2026-05-07 16:27 | 25.38551 | 126.37570 | 26967 ft | 456 kts | 56° |
| 2026-05-07 16:27 | 25.40227 | 126.40585 | 26430 ft | 452 kts | 56° |
| 2026-05-07 16:27 | 25.41865 | 126.43535 | 25927 ft | 449 kts | 56° |
| 2026-05-07 16:27 | 25.43492 | 126.46471 | 25412 ft | 446 kts | 56° |
| 2026-05-07 16:28 | 25.45081 | 126.49345 | 24928 ft | 442 kts | 57° |
| 2026-05-07 16:28 | 25.46678 | 126.52240 | 24430 ft | 439 kts | 57° |
| 2026-05-07 16:28 | 25.48264 | 126.55114 | 24001 ft | 435 kts | 57° |
| 2026-05-07 16:28 | 25.49834 | 126.57964 | 23558 ft | 432 kts | 57° |
| 2026-05-07 16:29 | 25.51389 | 126.60792 | 23073 ft | 427 kts | 57° |
| 2026-05-07 16:29 | 25.52922 | 126.63582 | 22646 ft | 421 kts | 57° |
| 2026-05-07 16:29 | 25.54434 | 126.66335 | 22215 ft | 416 kts | 57° |
| 2026-05-07 16:29 | 25.55930 | 126.69060 | 21775 ft | 411 kts | 57° |
| 2026-05-07 16:30 | 25.57408 | 126.71749 | 21348 ft | 407 kts | 57° |
| 2026-05-07 16:30 | 25.58869 | 126.74410 | 20907 ft | 402 kts | 57° |
| 2026-05-07 16:30 | 25.60311 | 126.77045 | 20471 ft | 398 kts | 57° |
| 2026-05-07 16:30 | 25.61737 | 126.79654 | 20024 ft | 394 kts | 57° |
| 2026-05-07 16:31 | 25.63151 | 126.82246 | 19584 ft | 391 kts | 57° |
| 2026-05-07 16:31 | 25.64552 | 126.84815 | 19140 ft | 388 kts | 57° |
| 2026-05-07 16:31 | 25.65942 | 126.87362 | 18694 ft | 385 kts | 57° |
| 2026-05-07 16:31 | 25.67326 | 126.89896 | 18250 ft | 383 kts | 57° |
| 2026-05-07 16:32 | 25.68703 | 126.92417 | 17747 ft | 380 kts | 57° |
| 2026-05-07 16:32 | 25.70066 | 126.94908 | 17306 ft | 376 kts | 57° |
| 2026-05-07 16:32 | 25.70959 | 126.96537 | 17020 ft | 373 kts | 57° |
| 2026-05-07 16:32 | 25.72749 | 126.99809 | 16436 ft | 368 kts | 57° |
| 2026-05-07 16:33 | 25.74065 | 127.02220 | 16003 ft | 364 kts | 57° |
| 2026-05-07 16:33 | 25.75372 | 127.04615 | 15573 ft | 361 kts | 57° |
| 2026-05-07 16:33 | 25.76666 | 127.06989 | 15143 ft | 358 kts | 57° |
| 2026-05-07 16:33 | 25.77932 | 127.09312 | 14722 ft | 355 kts | 57° |
| 2026-05-07 16:34 | 25.79219 | 127.11674 | 14304 ft | 352 kts | 57° |
| 2026-05-07 16:34 | 25.80462 | 127.13965 | 13894 ft | 350 kts | 57° |
| 2026-05-07 16:34 | 25.81726 | 127.16299 | 13421 ft | 347 kts | 57° |
| 2026-05-07 16:34 | 25.82960 | 127.18582 | 13007 ft | 343 kts | 57° |
| 2026-05-07 16:35 | 25.84047 | 127.20591 | 12636 ft | 340 kts | 57° |
| 2026-05-07 16:35 | 25.85258 | 127.22830 | 12234 ft | 336 kts | 57° |
| 2026-05-07 16:35 | 25.86457 | 127.25046 | 11833 ft | 333 kts | 57° |
| 2026-05-07 16:35 | 25.87647 | 127.27244 | 11435 ft | 331 kts | 57° |
| 2026-05-07 16:36 | 25.88488 | 127.28685 | 11165 ft | 328 kts | 51° |
| 2026-05-07 16:36 | 25.90573 | 127.31046 | 10644 ft | 321 kts | 34° |
| 2026-05-07 16:36 | 25.92441 | 127.32340 | 10314 ft | 313 kts | 22° |
| 2026-05-07 16:36 | 25.94398 | 127.33323 | 10124 ft | 304 kts | 21° |
| 2026-05-07 16:37 | 25.96330 | 127.34292 | 10063 ft | 305 kts | 21° |
| 2026-05-07 16:37 | 25.97634 | 127.34947 | 10010 ft | 305 kts | 21° |
| 2026-05-07 16:37 | 25.99576 | 127.35925 | 9666 ft | 308 kts | 21° |
| 2026-05-07 16:37 | 26.02147 | 127.37226 | 9126 ft | 305 kts | 21° |
| 2026-05-07 16:38 | 26.04070 | 127.38204 | 8732 ft | 303 kts | 22° |
| 2026-05-07 16:38 | 26.05980 | 127.39176 | 8343 ft | 301 kts | 22° |
| 2026-05-07 16:38 | 26.07881 | 127.40141 | 7957 ft | 299 kts | 22° |
| 2026-05-07 16:38 | 26.09768 | 127.41097 | 7581 ft | 298 kts | 22° |
| 2026-05-07 16:39 | 26.11044 | 127.41741 | 7351 ft | 296 kts | 22° |
| 2026-05-07 16:39 | 26.12919 | 127.42685 | 6955 ft | 296 kts | 23° |
| 2026-05-07 16:39 | 26.14787 | 127.43626 | 6607 ft | 293 kts | 23° |
| 2026-05-07 16:39 | 26.16638 | 127.44561 | 6244 ft | 291 kts | 23° |
| 2026-05-07 16:40 | 26.18477 | 127.45491 | 5847 ft | 290 kts | 24° |
| 2026-05-07 16:40 | 26.20302 | 127.46415 | 5482 ft | 288 kts | 24° |
| 2026-05-07 16:40 | 26.22112 | 127.47330 | 5164 ft | 284 kts | 24° |
| 2026-05-07 16:40 | 26.23912 | 127.48240 | 4780 ft | 282 kts | 24° |
| 2026-05-07 16:41 | 26.25672 | 127.49132 | 4387 ft | 282 kts | 24° |
| 2026-05-07 16:41 | 26.27475 | 127.50047 | 3979 ft | 281 kts | 24° |
| 2026-05-07 16:41 | 26.29217 | 127.50933 | 3604 ft | 273 kts | 24° |
| 2026-05-07 16:41 | 26.30897 | 127.51786 | 3269 ft | 258 kts | 24° |
| 2026-05-07 16:42 | 26.32408 | 127.52743 | 2950 ft | 247 kts | 40° |
| 2026-05-07 16:42 | 26.33487 | 127.54206 | 2626 ft | 245 kts | 63° |
| 2026-05-07 16:42 | 26.33989 | 127.55999 | 2295 ft | 241 kts | 85° |
| 2026-05-07 16:42 | 26.34070 | 127.57845 | 1948 ft | 237 kts | 89° |
| 2026-05-07 16:43 | 26.34135 | 127.59662 | 1605 ft | 232 kts | 91° |
| 2026-05-07 16:43 | 26.33779 | 127.61350 | 1314 ft | 223 kts | 125° |
| 2026-05-07 16:43 | 26.32595 | 127.62278 | 1228 ft | 203 kts | 170° |
| 2026-05-07 16:43 | 26.31249 | 127.62362 | 1259 ft | 189 kts | 177° |
| 2026-05-07 16:44 | 26.29955 | 127.62454 | 1218 ft | 184 kts | 176° |
| 2026-05-07 16:44 | 26.28715 | 127.62551 | 1224 ft | 171 kts | 176° |
| 2026-05-07 16:44 | 26.27603 | 127.62639 | 1204 ft | 154 kts | 176° |
| 2026-05-07 16:44 | 26.26560 | 127.62721 | 1148 ft | 148 kts | 176° |
| 2026-05-07 16:45 | 26.25539 | 127.62801 | 1012 ft | 146 kts | 176° |
| 2026-05-07 16:45 | 26.24534 | 127.62880 | 866 ft | 144 kts | 175° |
| 2026-05-07 16:45 | 26.23533 | 127.63006 | 634 ft | 145 kts | 173° |
| 2026-05-07 16:45 | 26.22534 | 127.63118 | 380 ft | 144 kts | 174° |
| 2026-05-07 16:46 | 26.21526 | 127.63180 | 266 ft | 146 kts | 176° |
| 2026-05-07 16:46 | 26.20512 | 127.63231 | 96 ft | 146 kts | 177° |
| 2026-05-07 16:46 | 26.19526 | 127.63278 | 17 ft | 128 kts | 178° |
| 2026-05-07 16:46 | 26.18809 | 127.63311 | 16 ft | 79 kts | 178° |
| 2026-05-07 16:47 | 26.18501 | 127.63366 | 18 ft | 26 kts | 157° |
| 2026-05-07 16:47 | 26.18376 | 127.63449 | 17 ft | 17 kts | 134° |
| 2026-05-07 16:47 | 26.18422 | 127.63521 | 17 ft | 15 kts | 358° |
| 2026-05-07 16:47 | 26.18523 | 127.63516 | 17 ft | 15 kts | 357° |
| 2026-05-07 16:48 | 26.18633 | 127.63511 | 17 ft | 16 kts | 358° |
| 2026-05-07 16:48 | 26.18753 | 127.63505 | 17 ft | 18 kts | 357° |
| 2026-05-07 16:48 | 26.18880 | 127.63498 | 17 ft | 19 kts | 358° |
| 2026-05-07 16:48 | 26.19016 | 127.63494 | 17 ft | 20 kts | 359° |
| 2026-05-07 16:49 | 26.19157 | 127.63485 | 17 ft | 21 kts | 355° |
| 2026-05-07 16:49 | 26.19304 | 127.63479 | 17 ft | 22 kts | 357° |
| 2026-05-07 16:49 | 26.19457 | 127.63472 | 17 ft | 22 kts | 358° |
| 2026-05-07 16:49 | 26.19615 | 127.63464 | 17 ft | 23 kts | 358° |
| 2026-05-07 16:50 | 26.19779 | 127.63456 | 17 ft | 24 kts | 356° |
| 2026-05-07 16:50 | 26.19948 | 127.63447 | 17 ft | 25 kts | 357° |
| 2026-05-07 16:50 | 26.20077 | 127.63442 | 17 ft | 15 kts | 358° |
| 2026-05-07 16:50 | 26.20179 | 127.63439 | 17 ft | 12 kts | 358° |
| 2026-05-07 16:51 | 26.20270 | 127.63438 | 17 ft | 14 kts | 15° |
| 2026-05-07 16:51 | 26.20303 | 127.63532 | 17 ft | 14 kts | 89° |
| 2026-05-07 16:51 | 26.20306 | 127.63646 | 19 ft | 15 kts | 86° |
| 2026-05-07 16:51 | 26.20311 | 127.63768 | 17 ft | 16 kts | 88° |
| 2026-05-07 16:52 | 26.20316 | 127.63897 | 17 ft | 17 kts | 88° |
| 2026-05-07 16:52 | 26.20321 | 127.64033 | 17 ft | 18 kts | 88° |
| 2026-05-07 16:52 | 26.20326 | 127.64175 | 17 ft | 19 kts | 89° |
| 2026-05-07 16:52 | 26.20332 | 127.64323 | 17 ft | 19 kts | 87° |
| 2026-05-07 16:53 | 26.20338 | 127.64474 | 18 ft | 19 kts | 87° |
| 2026-05-07 16:53 | 26.20343 | 127.64609 | 18 ft | 13 kts | 85° |
| 2026-05-07 16:53 | 26.20400 | 127.64682 | 17 ft | 14 kts | 29° |
| 2026-05-07 16:53 | 26.20486 | 127.64732 | 17 ft | 14 kts | 26° |
| 2026-05-07 16:54 | 26.20584 | 127.64747 | 17 ft | 15 kts | 357° |
| 2026-05-07 16:54 | 26.20691 | 127.64742 | 17 ft | 16 kts | 358° |
| 2026-05-07 16:54 | 26.20805 | 127.64737 | 17 ft | 17 kts | 358° |
| 2026-05-07 16:54 | 26.20904 | 127.64779 | 19 ft | 16 kts | 59° |
| 2026-05-07 16:55 | 26.20917 | 127.64836 | 20 ft | 3 kts | 82° |
| 2026-05-07 16:55 | 26.20919 | 127.64865 | 20 ft | 4 kts | 96° |
| 2026-05-07 16:55 | 26.20896 | 127.64885 | 20 ft | 5 kts | 147° |
| 2026-05-07 16:55 | 26.20866 | 127.64901 | 21 ft | 5 kts | 158° |
| 2026-05-07 16:56 | 26.20843 | 127.64912 | 21 ft | 2 kts | 157° |
| 2026-05-07 16:56 | 26.20834 | 127.64916 | 21 ft | 0 kts | 157° |
| 2026-05-07 16:56 | 26.20832 | 127.64916 | 21 ft | 0 kts | 157° |